createdAt,value
2023-03-23T16:02:52.767Z,100102.78
2023-03-23T16:07:54.566Z,100088.78
2023-03-23T16:12:56.382Z,100073.91
2023-03-23T16:17:57.941Z,100092.28
2023-03-23T16:22:59.989Z,100101.91
2023-03-23T16:28:02.067Z,100107.22
2023-03-23T16:33:03.623Z,100107.25
2023-03-23T16:38:07.340Z,100111.59
2023-03-23T16:43:11.194Z,100105.50
2023-03-23T16:48:16.926Z,100093.25
2023-03-23T16:53:18.938Z,100096.75
2023-03-23T16:58:20.797Z,100115.97
2023-03-23T17:03:22.847Z,100117.69
2023-03-23T17:08:24.504Z,100129.06
2023-03-23T17:13:27.910Z,100136.91
2023-03-23T17:18:29.551Z,100133.34
2023-03-23T17:23:31.123Z,100142.94
2023-03-23T17:28:32.734Z,100149.84
2023-03-23T17:33:34.435Z,100142.81
2023-03-23T17:38:35.936Z,100148.91
2023-03-23T17:43:40.750Z,100161.97
2023-03-23T17:48:42.369Z,100171.56
2023-03-23T17:53:44.018Z,100168.94
2023-03-23T17:58:45.751Z,100149.69
2023-03-23T18:03:47.315Z,100144.44
2023-03-23T18:08:48.890Z,100144.44
2023-03-23T18:13:50.471Z,100134.84
2023-03-23T18:18:52.122Z,100135.72
2023-03-23T18:23:59.133Z,100143.56
2023-03-23T18:29:01.829Z,100151.38
2023-03-23T18:34:03.385Z,100146.13
2023-03-23T18:39:06.135Z,100160.09
2023-03-23T18:44:07.760Z,100152.22
2023-03-23T18:49:09.757Z,100137.41
2023-03-23T18:54:11.285Z,100147.84
2023-03-23T18:59:12.971Z,100139.06
2023-03-23T19:04:14.815Z,100140.72
2023-03-23T19:09:17.018Z,100144.19
2023-03-23T19:14:19.347Z,100128.47
2023-03-23T19:19:21.779Z,100132.69
2023-03-23T19:24:23.320Z,100126.59
2023-03-23T19:29:27.458Z,100101.28
2023-03-23T19:34:30.563Z,100117.81
2023-03-23T19:39:32.659Z,100103.84
2023-03-23T19:44:34.904Z,100104.75
2023-03-23T19:49:36.702Z,100090.84
2023-03-23T19:54:39.030Z,100090.03
2023-03-23T19:59:40.978Z,100088.28
2023-03-23T20:04:43.235Z,100092.66
2023-03-23T20:09:45.059Z,100088.31
2023-03-23T20:14:47.130Z,100081.38
2023-03-23T20:19:48.865Z,100083.09
2023-03-23T20:24:50.510Z,100061.28
2023-03-23T20:29:53.453Z,100077.84
2023-03-23T20:34:56.966Z,100067.34
2023-03-23T20:39:58.523Z,100060.25
2023-03-23T20:45:01.275Z,100049.75
2023-03-23T20:50:04.713Z,100047.13
2023-03-23T20:55:08.186Z,100048.91
2023-03-23T21:00:16.177Z,100045.38
2023-03-23T21:05:17.771Z,100030.56
2023-03-23T21:10:19.354Z,100028.75
2023-03-23T21:15:21.478Z,100018.22
2023-03-23T21:20:24.213Z,100014.66
2023-03-23T21:25:34.076Z,100007.66
2023-03-23T21:30:37.430Z,99997.13
2023-03-23T21:35:39.885Z,99986.69
2023-03-23T21:40:44.424Z,99981.44
2023-03-23T21:45:46.381Z,99976.22
2023-03-23T21:50:48.334Z,99966.72
2023-03-23T21:55:54.625Z,99958.03
2023-03-23T22:00:56.604Z,99955.44
2023-03-23T22:05:59.669Z,99940.63
2023-03-23T22:11:04.501Z,99933.72
2023-03-23T22:16:09.625Z,99928.50
2023-03-23T22:21:12.724Z,99914.56
2023-03-23T22:26:16.303Z,99918.09
2023-03-23T22:31:21.937Z,99899.75
2023-03-23T22:36:25.854Z,99896.31
2023-03-23T22:41:33.842Z,99891.09
2023-03-23T22:46:35.834Z,99889.34
2023-03-23T22:51:37.909Z,99878.88
2023-03-23T22:56:39.815Z,99875.38
2023-03-23T23:01:48.209Z,99859.66
2023-03-23T23:07:00.399Z,99853.53
2023-03-23T23:12:13.886Z,99838.66
2023-03-23T23:17:15.665Z,99841.25
2023-03-23T23:22:19.448Z,99830.78
2023-03-23T23:27:21.431Z,99822.06
2023-03-23T23:32:23.062Z,99821.16
2023-03-23T23:37:24.588Z,99808.06
2023-03-23T23:42:26.681Z,99806.34
2023-03-23T23:47:28.460Z,99798.53
2023-03-23T23:52:30.101Z,99784.53
2023-03-23T23:57:31.621Z,99779.31
